Portada
METAR-TAF:

METAR-TAF

Aeroports :

Nàltxik, Rússia

latitud: 43-30-46N, longitud: 043-38-12E, altitud: 445 m

Observació

L'informe es va fer fa 54 minuts, a les 23:00 UTC
Vent 4 kt del Sud-Oest
Temperatura 19°C
Humitat 68%
Pressió 1011 hPa
Visibilitat 10 km o més
Núvols disperses

METAR: URMN 112300Z 23002MPS 9999 SCT/// 19/13 Q1011 R24/////// NOSIG RMK QFE722

Hora: 03:54 (23:54 UTC)

Pronòstic

L'informe es va fer fa 54 minuts, a les 23:00 UTC
Pronòstic vàlid del 12 a les 00 UTC al 12 a les 09 UTC
Vent 6 kt del Oest/Sud-Oest amb ràfegues de 16 kt
Visibilitat 10 km o més
Núvols disperses a una alçada de 2000 ft

TAF: URMN 112300Z 1200/1209 24003G08MPS 9999 SCT020

Observacions i pronòstics meteorològics de més de 4000 aeroports (METAR i TAF).

Les estacions disponibles són els punts grocs i vermells al mapa.

Posi el ratolí al punt desitjat per veure el nom de l'estació.

Feu clic per veure les observacions i els pronòstics meteorològics.

Per canviar el mapa: feu clic els botons verds amb una creu de color negre per apropar; al botó verd amb un guió per allunyar la imatge; o en les fletxes verdes per a mapes adjacents.


METAR-TAF: